Aérodrome :
LOGIN :

S'inscrire | Disclaimer

   EN    FR    IT 

 










Légende :    VFR   VFR Marginal   IFR   IFR Intensif   IFR Très Intensif
Visi : 
Plafond : 
>= 8 km
>= 3000ft
5 à 8 km
1000 à 3000 ft
1500m à 5 km
500 à 1000 ft
800 à 1500m
200 à 500 ft
< 800m
< 200 ft
Symboles :   Orages  Brouillard  Fortes neiges  Fortes précipitations  Vent > 20 kt
SIGMETs :   Divers  Orages  Givrage  Turbulence  Onde Orograph.  Cendres Volcan.







- Altitude de l'aérodrome : 20 ft


EBFN - Koksijde

DERNIER METAR :
  • 180455Z 23004KT 8000 FEW018 SCT200 12/11 Q1018 BLU BLU

METARs EXPIRÉS :
  • 180425Z 22003KT 8000 SCT200 12/11 Q1018 BLU BLU
  • 180355Z 22003KT 8000 FEW200 12/10 Q1018 BLU BLU
  • 180333Z 22003KT 8000 FEW200 11/10 Q1018 BLU BLU
  • 180255Z AUTO 22003KT 9000 NCD 12/10 Q1018 BLU
  • 180225Z AUTO VRB02KT 9000 NCD 12/10 Q1018 BLU
  • 180155Z AUTO 23003KT 9000 NCD 12/10 Q1018 BLU

TAF TAF EBFN
Valide du 17 à 19h jusqu'au 18 à 07h UTC


171541Z 1719/1807 29012G22KT 9999 FEW030 SCT220
BECMG 1720/1722 23008KT
BECMG 1801/1803 4000 BR SCT035
TEMPO 1802/1806 2000 BR SCT004
Pas de NOTAMs connus pour ce terrain.



MET'MAP, la Météo Aéronautique d'un coup d'oeil ! - Copyright ORBIFLY Décembre 2007 - Disclaimer

ORBIFLY MET'MAP TEAM :

Programmation & Développement : Alexandra Zaïnal
Conception & Développement : Baudouin d'Aumeries
Co-Programmation & Développement : Marc-Olivier Méhu
Soutien technique & logistique : Manuel Goepfert

Contact : metmap@orbifly.com




SOURCES & CREDITS :

   NOAA